Aviation Digital Data Service (ADDS)

Output produced by METARs form (0241 UTC 24 July 2017)
found at http://www.aviationweather.gov/adds/metars/
 
EKYT 240220Z AUTO 19003KT 4100NDV BR FEW006/// BKN022/// BKN040/// 16/15 Q1011
TAF EKYT 240202Z 2403/2424 VRB03KT 9999 SCT006 BKN020 
     TEMPO 2403/2409 4000 -RA BR BKN006 
     TEMPO 2409/2415 6000 -RA BKN012
       
EKAH 240220Z AUTO 26002KT 0500NDV R10R/0800U R28L/1000D FG VV001 10/10 Q1012
TAF EKAH 232301Z 2400/2424 VRB05KT 0100 FG VV001 
     TEMPO 2400/2406 3000 BR BKN020 
     BECMG 2406/2408 05007KT 9999 NSW 
     TEMPO 2408/2424 4000 BR RA BKN008
       
EKBI 240220Z 12001KT 9999 R09/0550N R27/P1500D BCFG SKC 10/10 Q1011
TAF AMD EKBI 240221Z 2402/2424 VRB05KT 9999 SCT020 
     TEMPO 2402/2406 0100 FG VV001 
     TEMPO 2406/2408 BKN004 
     TEMPO 2412/2418 SHRA BKN012 SCT020CB 
     BECMG 2421/2423 0400 FG BKN002
       
EKRN 240220Z AUTO 29005KT 9000NDV OVC014/// 17/16 Q1010
EKEB 240220Z AUTO 08004KT 030V110 9999NDV FEW220/// 11/10 Q1010
EKKA 240239Z AUTO 09003KT 0300NDV R09R/0400U R27L/M0250D FG VV001 10/10 Q1011
TAF EKKA 240202Z 2403/2424 VRB03KT 0100 FG VV001 
     TEMPO 2403/2406 4000 BR BKN008 
     BECMG 2406/2408 9999 NSW SCT020 
     TEMPO 2421/2424 3000 BR BKN008
       
EKCH 240220Z 18001KT 9999 BKN006 15/14 Q1011 BECMG 4000 BR
TAF AMD EKCH 240001Z 2400/2424 09007KT 8000 BKN008 
     BECMG 2400/2402 VRB05KT 
     PROB40 2400/2406 0400 FG RADZ BKN002 
     BECMG 2406/2408 BKN015 
     TEMPO 2408/2424 4000 BR RA BKN008 
     BECMG 2408/2411 06007KT
       
EKVD 240220Z AUTO 06002KT //// ///////// 09/09 Q1011
EKAH 240220Z AUTO 26002KT 0500NDV R10R/0800U R28L/1000D FG VV001 10/10 Q1012
TAF EKAH 232301Z 2400/2424 VRB05KT 0100 FG VV001 
     TEMPO 2400/2406 3000 BR BKN020 
     BECMG 2406/2408 05007KT 9999 NSW 
     TEMPO 2408/2424 4000 BR RA BKN008
       
EKBI 240220Z 12001KT 9999 R09/0550N R27/P1500D BCFG SKC 10/10 Q1011
TAF AMD EKBI 240221Z 2402/2424 VRB05KT 9999 SCT020 
     TEMPO 2402/2406 0100 FG VV001 
     TEMPO 2406/2408 BKN004 
     TEMPO 2412/2418 SHRA BKN012 SCT020CB 
     BECMG 2421/2423 0400 FG BKN002
       
EKCH 240220Z 18001KT 9999 BKN006 15/14 Q1011 BECMG 4000 BR
TAF AMD EKCH 240001Z 2400/2424 09007KT 8000 BKN008 
     BECMG 2400/2402 VRB05KT 
     PROB40 2400/2406 0400 FG RADZ BKN002 
     BECMG 2406/2408 BKN015 
     TEMPO 2408/2424 4000 BR RA BKN008 
     BECMG 2408/2411 06007KT
       
EKEB 240220Z AUTO 08004KT 030V110 9999NDV FEW220/// 11/10 Q1010
EKKA 240239Z AUTO 09003KT 0300NDV R09R/0400U R27L/M0250D FG VV001 10/10 Q1011
TAF EKKA 240202Z 2403/2424 VRB03KT 0100 FG VV001 
     TEMPO 2403/2406 4000 BR BKN008 
     BECMG 2406/2408 9999 NSW SCT020 
     TEMPO 2421/2424 3000 BR BKN008
       
EKRK 240220Z AUTO 35001KT 1100NDV R11/P1500U R29/P1500N BR FEW001/// SCT004/// OVC006/// 14/14 Q1011
TAF EKRK 240218Z 2403/2412 VRB04KT 4000 BR NSC 
     PROB40 2403/2406 0200 FG VV001 
     BECMG 2406/2408 9999 NSW 
     TEMPO 2408/2412 4000 BR RA BKN008
       
EKRN 240220Z AUTO 29005KT 9000NDV OVC014/// 17/16 Q1010
EKSB 240220Z AUTO 05001KT 4900NDV BR BKN210/// 12/12 Q1010
EKSP 240220Z 06002KT 9999 MIFG NSC 11/11 Q1010 RMK FEW090 SCT230
TAF EKSP 240202Z 2403/2424 VRB03KT 9999 FEW230 
     TEMPO 2403/2406 0500 BCFG BKN003 
     TEMPO 2410/2416 6000 -SHRA SCT030CB 
     TEMPO 2422/2424 3000 BR BKN008
       
EKVD 240220Z AUTO 06002KT //// ///////// 09/09 Q1011
EKVG 240220Z AUTO 28006KT 4400NDV BR SCT002/// 11/11 Q1022 RMK OVC001/// WIND 850FT 28004KT
EKYT 240220Z AUTO 19003KT 4100NDV BR FEW006/// BKN022/// BKN040/// 16/15 Q1011
TAF EKYT 240202Z 2403/2424 VRB03KT 9999 SCT006 BKN020 
     TEMPO 2403/2409 4000 -RA BR BKN006 
     TEMPO 2409/2415 6000 -RA BKN012
       
EKRK 240220Z AUTO 35001KT 1100NDV R11/P1500U R29/P1500N BR FEW001/// SCT004/// OVC006/// 14/14 Q1011
TAF EKRK 240218Z 2403/2412 VRB04KT 4000 BR NSC 
     PROB40 2403/2406 0200 FG VV001 
     BECMG 2406/2408 9999 NSW 
     TEMPO 2408/2412 4000 BR RA BKN008
       
EKSP 240220Z 06002KT 9999 MIFG NSC 11/11 Q1010 RMK FEW090 SCT230
TAF EKSP 240202Z 2403/2424 VRB03KT 9999 FEW230 
     TEMPO 2403/2406 0500 BCFG BKN003 
     TEMPO 2410/2416 6000 -SHRA SCT030CB 
     TEMPO 2422/2424 3000 BR BKN008
       
EKSB 240220Z AUTO 05001KT 4900NDV BR BKN210/// 12/12 Q1010